Aviation Digital Data Service (ADDS)

Output produced by TAFs form (0000 UTC 19 July 2018)
found at http://www.aviationweather.gov/adds/tafs/
 
METAR text: ROAH 182330Z 06009KT 9999 VCSH FEW015 SCT020 BKN/// 29/24 Q1007
Conditions at: ROAH (NAHA (CIV/JASDF), JP) observed 2330 UTC 18 July 2018
Temperature: 29.0°C (84°F)
Dewpoint: 24.0°C (75°F) [RH = 74%]
Pressure (altimeter): 29.73 inches Hg (1007.0 mb)
Winds: from the ENE (60 degrees) at 10 MPH (9 knots; 4.7 m/s)
Visibility: 6 or more miles (10+ km)
Ceiling: at least 12,000 feet AGL
Clouds: few clouds at 1500 feet AGL
scattered clouds at 2000 feet AGL
Weather: VCSH  (showers in vicinity)

Forecast for: ROAH (NAHA (CIV/JASDF), JP)
Text: TAF ROAH 182305Z 1900/2006 06011KT 9999 FEW015 SCT025
Forecast period: 0000 UTC 19 July 2018 to 0600 UTC 20 July 2018
Forecast type: FROM: standard forecast or significant change
Winds: from the ENE (60 degrees) at 13 MPH (11 knots; 5.7 m/s)
Visibility: 6 or more miles (10+ km)
Clouds: few clouds at 1500 feet AGL
scattered clouds at 2500 feet AGL
Weather: no significant weather forecast for this period
Text: TEMPO 2000/2006 SHRA FEW008 BKN015 FEW020CB
Forecast period: 0000 to 0600 UTC 20 July 2018
Forecast type: TEMPORARY: The following changes expected for less than half the time period
Ceiling: 1500 feet AGL
Clouds: few clouds at 800 feet AGL
broken clouds at 1500 feet AGL
few clouds at 2000 feet AGL
Weather: SHRA  (rain showers)